sensor_id;sensor_type;location;lat;lon;timestamp;P1;durP1;ratioP1;P2;durP2;ratioP2
72358;SDS011;60317;48.880;-0.862;2023-07-20T00:01:38;4.88;;;1.88;;
72358;SDS011;60317;48.880;-0.862;2023-07-20T00:04:06;3.90;;;1.70;;
72358;SDS011;60317;48.880;-0.862;2023-07-20T00:06:32;4.15;;;1.95;;
72358;SDS011;60317;48.880;-0.862;2023-07-20T00:08:59;6.43;;;1.98;;
72358;SDS011;60317;48.880;-0.862;2023-07-20T00:11:26;4.97;;;1.80;;
72358;SDS011;60317;48.880;-0.862;2023-07-20T00:13:53;5.13;;;2.22;;
72358;SDS011;60317;48.880;-0.862;2023-07-20T00:16:20;5.05;;;1.90;;
72358;SDS011;60317;48.880;-0.862;2023-07-20T00:18:47;3.15;;;1.50;;
72358;SDS011;60317;48.880;-0.862;2023-07-20T00:21:15;3.60;;;1.77;;
72358;SDS011;60317;48.880;-0.862;2023-07-20T00:23:41;7.05;;;2.10;;
72358;SDS011;60317;48.880;-0.862;2023-07-20T00:26:08;4.90;;;2.08;;
72358;SDS011;60317;48.880;-0.862;2023-07-20T00:28:34;4.30;;;1.67;;
72358;SDS011;60317;48.880;-0.862;2023-07-20T00:31:01;6.15;;;1.70;;
72358;SDS011;60317;48.880;-0.862;2023-07-20T00:33:27;3.55;;;1.48;;
72358;SDS011;60317;48.880;-0.862;2023-07-20T00:35:54;3.70;;;1.55;;
72358;SDS011;60317;48.880;-0.862;2023-07-20T00:38:21;2.13;;;1.55;;
72358;SDS011;60317;48.880;-0.862;2023-07-20T00:40:48;5.05;;;1.83;;
72358;SDS011;60317;48.880;-0.862;2023-07-20T00:43:14;4.03;;;1.63;;
72358;SDS011;60317;48.880;-0.862;2023-07-20T00:45:41;3.28;;;1.80;;
72358;SDS011;60317;48.880;-0.862;2023-07-20T00:48:09;5.20;;;1.65;;
72358;SDS011;60317;48.880;-0.862;2023-07-20T00:50:36;4.18;;;2.00;;
72358;SDS011;60317;48.880;-0.862;2023-07-20T00:53:03;4.40;;;1.50;;
72358;SDS011;60317;48.880;-0.862;2023-07-20T00:55:32;3.28;;;1.58;;
72358;SDS011;60317;48.880;-0.862;2023-07-20T00:57:59;3.55;;;1.70;;
72358;SDS011;60317;48.880;-0.862;2023-07-20T01:00:26;3.13;;;1.55;;
72358;SDS011;60317;48.880;-0.862;2023-07-20T01:02:52;4.80;;;1.90;;
72358;SDS011;60317;48.880;-0.862;2023-07-20T01:05:19;4.88;;;1.80;;
72358;SDS011;60317;48.880;-0.862;2023-07-20T01:07:51;3.13;;;1.58;;
72358;SDS011;60317;48.880;-0.862;2023-07-20T01:10:22;2.78;;;1.60;;
72358;SDS011;60317;48.880;-0.862;2023-07-20T01:12:56;4.93;;;1.92;;
72358;SDS011;60317;48.880;-0.862;2023-07-20T01:15:23;5.57;;;1.77;;
72358;SDS011;60317;48.880;-0.862;2023-07-20T01:17:50;6.47;;;1.75;;
72358;SDS011;60317;48.880;-0.862;2023-07-20T01:20:19;4.95;;;1.70;;
72358;SDS011;60317;48.880;-0.862;2023-07-20T01:22:50;2.63;;;1.50;;
72358;SDS011;60317;48.880;-0.862;2023-07-20T01:25:34;5.35;;;1.98;;
72358;SDS011;60317;48.880;-0.862;2023-07-20T01:28:28;4.22;;;1.70;;
72358;SDS011;60317;48.880;-0.862;2023-07-20T01:33:43;2.10;;;1.50;;
72358;SDS011;60317;48.880;-0.862;2023-07-20T01:36:12;5.32;;;1.58;;
72358;SDS011;60317;48.880;-0.862;2023-07-20T01:38:40;4.60;;;1.85;;
72358;SDS011;60317;48.880;-0.862;2023-07-20T01:41:08;3.53;;;1.77;;
72358;SDS011;60317;48.880;-0.862;2023-07-20T01:43:36;2.72;;;1.33;;
72358;SDS011;60317;48.880;-0.862;2023-07-20T01:46:03;4.28;;;1.70;;
72358;SDS011;60317;48.880;-0.862;2023-07-20T01:48:31;3.90;;;1.60;;
72358;SDS011;60317;48.880;-0.862;2023-07-20T01:50:58;3.65;;;1.80;;
72358;SDS011;60317;48.880;-0.862;2023-07-20T01:53:24;4.10;;;1.80;;
72358;SDS011;60317;48.880;-0.862;2023-07-20T01:55:52;5.00;;;1.83;;
72358;SDS011;60317;48.880;-0.862;2023-07-20T01:58:18;4.45;;;1.67;;
72358;SDS011;60317;48.880;-0.862;2023-07-20T02:00:45;3.08;;;1.60;;
72358;SDS011;60317;48.880;-0.862;2023-07-20T02:03:11;4.25;;;1.70;;
72358;SDS011;60317;48.880;-0.862;2023-07-20T02:05:40;2.95;;;1.65;;
72358;SDS011;60317;48.880;-0.862;2023-07-20T02:08:08;3.95;;;1.70;;
72358;SDS011;60317;48.880;-0.862;2023-07-20T02:10:35;3.88;;;1.65;;
72358;SDS011;60317;48.880;-0.862;2023-07-20T02:13:01;4.05;;;1.67;;
72358;SDS011;60317;48.880;-0.862;2023-07-20T02:15:28;4.45;;;1.88;;
72358;SDS011;60317;48.880;-0.862;2023-07-20T02:17:54;3.38;;;1.67;;
72358;SDS011;60317;48.880;-0.862;2023-07-20T02:20:21;2.63;;;1.60;;
72358;SDS011;60317;48.880;-0.862;2023-07-20T02:22:49;4.32;;;1.60;;
72358;SDS011;60317;48.880;-0.862;2023-07-20T02:25:15;3.45;;;1.75;;
72358;SDS011;60317;48.880;-0.862;2023-07-20T02:27:42;2.85;;;1.48;;
72358;SDS011;60317;48.880;-0.862;2023-07-20T02:30:09;3.90;;;1.77;;
72358;SDS011;60317;48.880;-0.862;2023-07-20T02:32:36;3.45;;;1.63;;
72358;SDS011;60317;48.880;-0.862;2023-07-20T02:35:02;3.35;;;1.60;;
72358;SDS011;60317;48.880;-0.862;2023-07-20T02:37:29;2.88;;;1.73;;
72358;SDS011;60317;48.880;-0.862;2023-07-20T02:39:57;4.18;;;1.85;;
72358;SDS011;60317;48.880;-0.862;2023-07-20T02:42:24;2.95;;;1.67;;
72358;SDS011;60317;48.880;-0.862;2023-07-20T02:44:50;4.13;;;1.70;;
72358;SDS011;60317;48.880;-0.862;2023-07-20T02:47:17;3.72;;;1.80;;
72358;SDS011;60317;48.880;-0.862;2023-07-20T02:49:43;2.53;;;1.48;;
72358;SDS011;60317;48.880;-0.862;2023-07-20T02:52:10;6.18;;;1.85;;
72358;SDS011;60317;48.880;-0.862;2023-07-20T02:54:36;4.10;;;1.70;;
72358;SDS011;60317;48.880;-0.862;2023-07-20T02:57:04;3.60;;;1.50;;
72358;SDS011;60317;48.880;-0.862;2023-07-20T02:59:31;4.13;;;1.60;;
72358;SDS011;60317;48.880;-0.862;2023-07-20T03:01:57;3.25;;;1.50;;
72358;SDS011;60317;48.880;-0.862;2023-07-20T03:04:25;3.42;;;1.63;;
72358;SDS011;60317;48.880;-0.862;2023-07-20T03:06:52;2.90;;;1.70;;
72358;SDS011;60317;48.880;-0.862;2023-07-20T03:09:19;3.60;;;1.67;;
72358;SDS011;60317;48.880;-0.862;2023-07-20T03:11:45;2.55;;;1.40;;
72358;SDS011;60317;48.880;-0.862;2023-07-20T03:14:13;3.10;;;1.50;;
72358;SDS011;60317;48.880;-0.862;2023-07-20T03:16:40;4.18;;;1.70;;
72358;SDS011;60317;48.880;-0.862;2023-07-20T03:19:06;3.38;;;1.52;;
72358;SDS011;60317;48.880;-0.862;2023-07-20T03:21:33;6.88;;;1.95;;
72358;SDS011;60317;48.880;-0.862;2023-07-20T03:23:59;2.15;;;1.30;;
72358;SDS011;60317;48.880;-0.862;2023-07-20T03:26:26;4.40;;;1.58;;
72358;SDS011;60317;48.880;-0.862;2023-07-20T03:28:52;2.78;;;1.45;;
72358;SDS011;60317;48.880;-0.862;2023-07-20T03:31:20;2.70;;;1.23;;
72358;SDS011;60317;48.880;-0.862;2023-07-20T03:33:46;3.58;;;1.50;;
72358;SDS011;60317;48.880;-0.862;2023-07-20T03:36:13;3.35;;;1.50;;
72358;SDS011;60317;48.880;-0.862;2023-07-20T03:38:39;3.35;;;1.83;;
72358;SDS011;60317;48.880;-0.862;2023-07-20T03:41:06;4.32;;;1.70;;
72358;SDS011;60317;48.880;-0.862;2023-07-20T03:43:32;4.30;;;1.70;;
72358;SDS011;60317;48.880;-0.862;2023-07-20T03:45:59;5.22;;;1.60;;
72358;SDS011;60317;48.880;-0.862;2023-07-20T03:48:27;2.88;;;1.50;;
72358;SDS011;60317;48.880;-0.862;2023-07-20T03:50:53;3.95;;;1.42;;
72358;SDS011;60317;48.880;-0.862;2023-07-20T03:53:20;2.97;;;1.60;;
72358;SDS011;60317;48.880;-0.862;2023-07-20T03:55:47;2.45;;;1.48;;
72358;SDS011;60317;48.880;-0.862;2023-07-20T03:58:15;3.38;;;1.50;;
72358;SDS011;60317;48.880;-0.862;2023-07-20T04:00:44;3.88;;;1.27;;
72358;SDS011;60317;48.880;-0.862;2023-07-20T04:03:11;3.38;;;1.60;;
72358;SDS011;60317;48.880;-0.862;2023-07-20T04:05:39;3.47;;;1.90;;
72358;SDS011;60317;48.880;-0.862;2023-07-20T04:08:06;4.18;;;1.77;;
72358;SDS011;60317;48.880;-0.862;2023-07-20T04:10:32;3.22;;;1.60;;
72358;SDS011;60317;48.880;-0.862;2023-07-20T04:12:59;4.55;;;1.60;;
72358;SDS011;60317;48.880;-0.862;2023-07-20T04:15:26;4.70;;;1.80;;
72358;SDS011;60317;48.880;-0.862;2023-07-20T04:17:53;3.67;;;1.70;;
72358;SDS011;60317;48.880;-0.862;2023-07-20T04:20:19;2.40;;;1.50;;
72358;SDS011;60317;48.880;-0.862;2023-07-20T04:22:47;2.42;;;1.23;;
72358;SDS011;60317;48.880;-0.862;2023-07-20T04:25:14;2.30;;;1.50;;
72358;SDS011;60317;48.880;-0.862;2023-07-20T04:27:40;2.80;;;1.40;;
72358;SDS011;60317;48.880;-0.862;2023-07-20T04:30:07;5.10;;;1.48;;
72358;SDS011;60317;48.880;-0.862;2023-07-20T04:32:34;3.88;;;1.70;;
72358;SDS011;60317;48.880;-0.862;2023-07-20T04:35:05;3.95;;;1.65;;
72358;SDS011;60317;48.880;-0.862;2023-07-20T04:37:32;2.80;;;1.42;;
72358;SDS011;60317;48.880;-0.862;2023-07-20T04:39:59;3.03;;;1.52;;
72358;SDS011;60317;48.880;-0.862;2023-07-20T04:42:26;2.15;;;1.50;;
72358;SDS011;60317;48.880;-0.862;2023-07-20T04:44:53;3.72;;;1.73;;
72358;SDS011;60317;48.880;-0.862;2023-07-20T04:47:19;2.63;;;1.50;;
72358;SDS011;60317;48.880;-0.862;2023-07-20T04:49:46;3.83;;;1.40;;
72358;SDS011;60317;48.880;-0.862;2023-07-20T04:52:12;2.97;;;1.63;;
72358;SDS011;60317;48.880;-0.862;2023-07-20T04:54:39;3.72;;;1.65;;
72358;SDS011;60317;48.880;-0.862;2023-07-20T04:57:09;3.63;;;1.73;;
72358;SDS011;60317;48.880;-0.862;2023-07-20T04:59:37;4.63;;;1.80;;
72358;SDS011;60317;48.880;-0.862;2023-07-20T05:02:04;3.80;;;1.70;;
72358;SDS011;60317;48.880;-0.862;2023-07-20T05:04:31;4.55;;;1.90;;
72358;SDS011;60317;48.880;-0.862;2023-07-20T05:07:04;6.55;;;2.20;;
72358;SDS011;60317;48.880;-0.862;2023-07-20T05:09:31;4.13;;;1.80;;
72358;SDS011;60317;48.880;-0.862;2023-07-20T05:11:57;4.32;;;1.70;;
72358;SDS011;60317;48.880;-0.862;2023-07-20T05:14:25;5.15;;;2.10;;
72358;SDS011;60317;48.880;-0.862;2023-07-20T05:16:51;5.35;;;1.67;;
72358;SDS011;60317;48.880;-0.862;2023-07-20T05:19:18;3.70;;;1.85;;
72358;SDS011;60317;48.880;-0.862;2023-07-20T05:21:44;5.13;;;1.70;;
72358;SDS011;60317;48.880;-0.862;2023-07-20T05:24:11;3.63;;;1.80;;
72358;SDS011;60317;48.880;-0.862;2023-07-20T05:26:37;6.97;;;1.88;;
72358;SDS011;60317;48.880;-0.862;2023-07-20T05:29:04;3.67;;;2.03;;
72358;SDS011;60317;48.880;-0.862;2023-07-20T05:31:32;2.50;;;1.70;;
72358;SDS011;60317;48.880;-0.862;2023-07-20T05:33:58;6.28;;;1.80;;
72358;SDS011;60317;48.880;-0.862;2023-07-20T05:36:25;5.90;;;2.00;;
72358;SDS011;60317;48.880;-0.862;2023-07-20T05:38:51;5.30;;;1.90;;
72358;SDS011;60317;48.880;-0.862;2023-07-20T05:41:18;5.15;;;2.00;;
72358;SDS011;60317;48.880;-0.862;2023-07-20T05:43:45;4.90;;;1.80;;
72358;SDS011;60317;48.880;-0.862;2023-07-20T05:46:11;4.28;;;2.05;;
72358;SDS011;60317;48.880;-0.862;2023-07-20T05:48:39;4.07;;;1.98;;
72358;SDS011;60317;48.880;-0.862;2023-07-20T05:51:05;4.82;;;1.80;;
72358;SDS011;60317;48.880;-0.862;2023-07-20T05:53:32;8.93;;;1.95;;
72358;SDS011;60317;48.880;-0.862;2023-07-20T05:55:58;5.88;;;1.95;;
72358;SDS011;60317;48.880;-0.862;2023-07-20T05:58:25;3.55;;;2.05;;
72358;SDS011;60317;48.880;-0.862;2023-07-20T06:00:53;3.15;;;1.80;;
72358;SDS011;60317;48.880;-0.862;2023-07-20T06:03:19;2.90;;;1.85;;
72358;SDS011;60317;48.880;-0.862;2023-07-20T06:05:47;4.53;;;2.00;;
72358;SDS011;60317;48.880;-0.862;2023-07-20T06:08:14;6.32;;;2.17;;
72358;SDS011;60317;48.880;-0.862;2023-07-20T06:10:40;2.50;;;1.70;;
72358;SDS011;60317;48.880;-0.862;2023-07-20T06:13:10;4.38;;;1.80;;
72358;SDS011;60317;48.880;-0.862;2023-07-20T06:15:38;4.60;;;1.92;;
72358;SDS011;60317;48.880;-0.862;2023-07-20T06:18:04;6.00;;;1.98;;
72358;SDS011;60317;48.880;-0.862;2023-07-20T06:20:31;4.05;;;1.90;;
72358;SDS011;60317;48.880;-0.862;2023-07-20T06:22:59;4.00;;;2.05;;
72358;SDS011;60317;48.880;-0.862;2023-07-20T06:25:25;5.25;;;2.20;;
72358;SDS011;60317;48.880;-0.862;2023-07-20T06:27:52;4.13;;;1.77;;
72358;SDS011;60317;48.880;-0.862;2023-07-20T06:30:21;3.83;;;2.00;;
72358;SDS011;60317;48.880;-0.862;2023-07-20T06:32:48;5.40;;;2.20;;
72358;SDS011;60317;48.880;-0.862;2023-07-20T06:35:15;4.43;;;1.92;;
72358;SDS011;60317;48.880;-0.862;2023-07-20T06:37:42;5.05;;;1.95;;
72358;SDS011;60317;48.880;-0.862;2023-07-20T06:40:10;4.57;;;2.00;;
72358;SDS011;60317;48.880;-0.862;2023-07-20T06:42:39;4.78;;;1.90;;
72358;SDS011;60317;48.880;-0.862;2023-07-20T06:45:09;3.83;;;1.65;;
72358;SDS011;60317;48.880;-0.862;2023-07-20T06:47:37;3.03;;;1.75;;
72358;SDS011;60317;48.880;-0.862;2023-07-20T06:50:05;1.98;;;1.40;;
72358;SDS011;60317;48.880;-0.862;2023-07-20T06:52:32;3.35;;;1.90;;
72358;SDS011;60317;48.880;-0.862;2023-07-20T06:54:58;2.83;;;1.60;;
72358;SDS011;60317;48.880;-0.862;2023-07-20T06:57:32;3.22;;;1.63;;
72358;SDS011;60317;48.880;-0.862;2023-07-20T06:59:58;3.92;;;1.73;;
72358;SDS011;60317;48.880;-0.862;2023-07-20T07:02:25;4.28;;;1.85;;
72358;SDS011;60317;48.880;-0.862;2023-07-20T07:04:51;4.97;;;1.90;;
72358;SDS011;60317;48.880;-0.862;2023-07-20T07:07:26;5.30;;;1.67;;
72358;SDS011;60317;48.880;-0.862;2023-07-20T07:09:53;3.78;;;1.70;;
72358;SDS011;60317;48.880;-0.862;2023-07-20T07:12:20;3.65;;;1.83;;
72358;SDS011;60317;48.880;-0.862;2023-07-20T07:14:48;3.47;;;1.70;;
72358;SDS011;60317;48.880;-0.862;2023-07-20T07:17:14;4.40;;;1.80;;
72358;SDS011;60317;48.880;-0.862;2023-07-20T07:19:45;2.95;;;1.60;;
72358;SDS011;60317;48.880;-0.862;2023-07-20T07:22:14;3.20;;;1.80;;
72358;SDS011;60317;48.880;-0.862;2023-07-20T07:24:41;4.05;;;1.70;;
72358;SDS011;60317;48.880;-0.862;2023-07-20T07:27:07;3.63;;;1.48;;
72358;SDS011;60317;48.880;-0.862;2023-07-20T07:29:34;2.78;;;1.70;;
72358;SDS011;60317;48.880;-0.862;2023-07-20T07:32:02;3.00;;;1.60;;
72358;SDS011;60317;48.880;-0.862;2023-07-20T07:34:29;3.28;;;1.80;;
72358;SDS011;60317;48.880;-0.862;2023-07-20T07:36:55;3.38;;;1.60;;
72358;SDS011;60317;48.880;-0.862;2023-07-20T07:39:22;2.75;;;1.38;;
72358;SDS011;60317;48.880;-0.862;2023-07-20T07:41:51;3.65;;;1.60;;
72358;SDS011;60317;48.880;-0.862;2023-07-20T07:44:18;3.63;;;1.70;;
72358;SDS011;60317;48.880;-0.862;2023-07-20T07:46:44;3.60;;;1.80;;
72358;SDS011;60317;48.880;-0.862;2023-07-20T07:49:12;2.83;;;1.60;;
72358;SDS011;60317;48.880;-0.862;2023-07-20T07:51:39;1.52;;;1.40;;
72358;SDS011;60317;48.880;-0.862;2023-07-20T07:54:05;3.60;;;1.55;;
72358;SDS011;60317;48.880;-0.862;2023-07-20T07:56:32;2.47;;;1.52;;
72358;SDS011;60317;48.880;-0.862;2023-07-20T07:58:58;3.35;;;1.73;;
72358;SDS011;60317;48.880;-0.862;2023-07-20T08:01:25;2.65;;;1.33;;
72358;SDS011;60317;48.880;-0.862;2023-07-20T08:03:51;2.83;;;1.55;;
72358;SDS011;60317;48.880;-0.862;2023-07-20T08:06:19;3.25;;;1.55;;
72358;SDS011;60317;48.880;-0.862;2023-07-20T08:08:46;2.28;;;1.25;;
72358;SDS011;60317;48.880;-0.862;2023-07-20T08:11:13;3.67;;;1.52;;
72358;SDS011;60317;48.880;-0.862;2023-07-20T08:13:41;4.57;;;1.50;;
72358;SDS011;60317;48.880;-0.862;2023-07-20T08:16:08;4.22;;;1.60;;
72358;SDS011;60317;48.880;-0.862;2023-07-20T08:18:34;4.00;;;1.50;;
72358;SDS011;60317;48.880;-0.862;2023-07-20T08:21:01;4.30;;;1.45;;
72358;SDS011;60317;48.880;-0.862;2023-07-20T08:23:29;5.28;;;1.60;;
72358;SDS011;60317;48.880;-0.862;2023-07-20T08:25:55;3.03;;;1.50;;
72358;SDS011;60317;48.880;-0.862;2023-07-20T08:28:22;2.50;;;1.58;;
72358;SDS011;60317;48.880;-0.862;2023-07-20T08:30:49;4.22;;;1.73;;
72358;SDS011;60317;48.880;-0.862;2023-07-20T08:33:16;3.08;;;1.35;;
72358;SDS011;60317;48.880;-0.862;2023-07-20T08:35:43;2.45;;;1.42;;
72358;SDS011;60317;48.880;-0.862;2023-07-20T08:38:10;2.65;;;1.40;;
72358;SDS011;60317;48.880;-0.862;2023-07-20T08:40:40;2.50;;;1.25;;
72358;SDS011;60317;48.880;-0.862;2023-07-20T08:43:08;3.70;;;1.42;;
72358;SDS011;60317;48.880;-0.862;2023-07-20T08:45:34;2.22;;;1.40;;
72358;SDS011;60317;48.880;-0.862;2023-07-20T08:48:04;2.88;;;1.33;;
72358;SDS011;60317;48.880;-0.862;2023-07-20T08:50:32;3.17;;;1.55;;
72358;SDS011;60317;48.880;-0.862;2023-07-20T08:52:59;2.50;;;1.30;;
72358;SDS011;60317;48.880;-0.862;2023-07-20T08:55:27;4.05;;;1.35;;
72358;SDS011;60317;48.880;-0.862;2023-07-20T08:57:55;3.63;;;1.70;;
72358;SDS011;60317;48.880;-0.862;2023-07-20T09:00:23;2.55;;;1.10;;
72358;SDS011;60317;48.880;-0.862;2023-07-20T09:02:52;2.75;;;1.20;;
72358;SDS011;60317;48.880;-0.862;2023-07-20T09:05:20;2.13;;;1.40;;
72358;SDS011;60317;48.880;-0.862;2023-07-20T09:07:47;2.85;;;1.48;;
72358;SDS011;60317;48.880;-0.862;2023-07-20T09:10:13;3.20;;;1.20;;
72358;SDS011;60317;48.880;-0.862;2023-07-20T09:12:40;3.72;;;1.70;;
72358;SDS011;60317;48.880;-0.862;2023-07-20T09:15:10;2.00;;;1.40;;
72358;SDS011;60317;48.880;-0.862;2023-07-20T09:17:37;2.78;;;1.40;;
72358;SDS011;60317;48.880;-0.862;2023-07-20T09:20:05;2.63;;;1.50;;
72358;SDS011;60317;48.880;-0.862;2023-07-20T09:22:33;1.38;;;1.20;;
72358;SDS011;60317;48.880;-0.862;2023-07-20T09:25:00;2.97;;;1.40;;
72358;SDS011;60317;48.880;-0.862;2023-07-20T09:27:33;3.25;;;1.60;;
72358;SDS011;60317;48.880;-0.862;2023-07-20T09:32:29;2.08;;;1.40;;
72358;SDS011;60317;48.880;-0.862;2023-07-20T09:34:58;4.50;;;1.35;;
72358;SDS011;60317;48.880;-0.862;2023-07-20T09:37:46;2.97;;;1.58;;
72358;SDS011;60317;48.880;-0.862;2023-07-20T09:40:14;3.63;;;1.20;;
72358;SDS011;60317;48.880;-0.862;2023-07-20T09:42:41;2.90;;;1.40;;
72358;SDS011;60317;48.880;-0.862;2023-07-20T09:45:29;3.97;;;1.27;;
72358;SDS011;60317;48.880;-0.862;2023-07-20T09:48:04;2.28;;;1.42;;
72358;SDS011;60317;48.880;-0.862;2023-07-20T09:50:34;2.13;;;1.30;;
72358;SDS011;60317;48.880;-0.862;2023-07-20T09:53:05;2.53;;;1.30;;
72358;SDS011;60317;48.880;-0.862;2023-07-20T09:55:36;2.88;;;1.23;;
72358;SDS011;60317;48.880;-0.862;2023-07-20T09:58:04;1.95;;;1.30;;
72358;SDS011;60317;48.880;-0.862;2023-07-20T10:00:31;3.60;;;1.20;;
72358;SDS011;60317;48.880;-0.862;2023-07-20T10:03:01;3.08;;;1.40;;
72358;SDS011;60317;48.880;-0.862;2023-07-20T10:05:31;2.47;;;1.63;;
72358;SDS011;60317;48.880;-0.862;2023-07-20T10:07:59;3.40;;;1.20;;
72358;SDS011;60317;48.880;-0.862;2023-07-20T10:10:31;2.35;;;1.00;;
72358;SDS011;60317;48.880;-0.862;2023-07-20T10:13:00;1.30;;;1.10;;
72358;SDS011;60317;48.880;-0.862;2023-07-20T10:15:28;1.92;;;1.10;;
72358;SDS011;60317;48.880;-0.862;2023-07-20T10:18:01;1.85;;;1.30;;
72358;SDS011;60317;48.880;-0.862;2023-07-20T10:20:33;2.22;;;1.17;;
72358;SDS011;60317;48.880;-0.862;2023-07-20T10:23:03;2.72;;;1.30;;
72358;SDS011;60317;48.880;-0.862;2023-07-20T10:25:30;2.58;;;1.38;;
72358;SDS011;60317;48.880;-0.862;2023-07-20T10:27:57;2.92;;;1.23;;
72358;SDS011;60317;48.880;-0.862;2023-07-20T10:30:24;1.77;;;1.33;;
72358;SDS011;60317;48.880;-0.862;2023-07-20T10:32:52;4.07;;;1.63;;
72358;SDS011;60317;48.880;-0.862;2023-07-20T10:35:20;1.80;;;1.30;;
72358;SDS011;60317;48.880;-0.862;2023-07-20T10:37:47;2.72;;;1.20;;
72358;SDS011;60317;48.880;-0.862;2023-07-20T10:43:03;2.33;;;1.10;;
72358;SDS011;60317;48.880;-0.862;2023-07-20T10:45:35;1.88;;;1.17;;
72358;SDS011;60317;48.880;-0.862;2023-07-20T10:48:05;1.33;;;1.10;;
72358;SDS011;60317;48.880;-0.862;2023-07-20T10:50:35;1.88;;;1.10;;
72358;SDS011;60317;48.880;-0.862;2023-07-20T10:53:04;2.55;;;1.30;;
72358;SDS011;60317;48.880;-0.862;2023-07-20T10:55:35;3.92;;;1.20;;
72358;SDS011;60317;48.880;-0.862;2023-07-20T10:58:10;3.05;;;1.45;;
72358;SDS011;60317;48.880;-0.862;2023-07-20T11:00:37;1.83;;;1.23;;
72358;SDS011;60317;48.880;-0.862;2023-07-20T11:03:26;1.67;;;1.10;;
72358;SDS011;60317;48.880;-0.862;2023-07-20T11:05:57;2.33;;;1.30;;
72358;SDS011;60317;48.880;-0.862;2023-07-20T11:08:37;1.77;;;1.40;;
72358;SDS011;60317;48.880;-0.862;2023-07-20T11:13:57;4.63;;;1.40;;
72358;SDS011;60317;48.880;-0.862;2023-07-20T11:19:02;3.00;;;1.20;;
72358;SDS011;60317;48.880;-0.862;2023-07-20T11:21:31;3.08;;;1.25;;
72358;SDS011;60317;48.880;-0.862;2023-07-20T11:24:21;3.60;;;1.23;;
72358;SDS011;60317;48.880;-0.862;2023-07-20T11:26:48;2.35;;;1.05;;
72358;SDS011;60317;48.880;-0.862;2023-07-20T11:29:16;2.65;;;1.23;;
72358;SDS011;60317;48.880;-0.862;2023-07-20T11:31:57;1.35;;;1.25;;
72358;SDS011;60317;48.880;-0.862;2023-07-20T11:34:24;1.65;;;1.10;;
72358;SDS011;60317;48.880;-0.862;2023-07-20T11:36:52;2.13;;;1.50;;
72358;SDS011;60317;48.880;-0.862;2023-07-20T11:39:21;2.15;;;1.23;;
72358;SDS011;60317;48.880;-0.862;2023-07-20T11:41:49;1.20;;;1.02;;
72358;SDS011;60317;48.880;-0.862;2023-07-20T11:44:17;1.25;;;1.10;;
72358;SDS011;60317;48.880;-0.862;2023-07-20T11:46:44;3.33;;;1.20;;
72358;SDS011;60317;48.880;-0.862;2023-07-20T11:49:11;3.10;;;1.50;;
72358;SDS011;60317;48.880;-0.862;2023-07-20T11:51:39;3.42;;;1.17;;
72358;SDS011;60317;48.880;-0.862;2023-07-20T11:54:08;1.48;;;1.13;;
72358;SDS011;60317;48.880;-0.862;2023-07-20T11:56:36;3.08;;;1.40;;
72358;SDS011;60317;48.880;-0.862;2023-07-20T11:59:02;2.85;;;1.45;;
72358;SDS011;60317;48.880;-0.862;2023-07-20T12:01:29;4.30;;;1.23;;
72358;SDS011;60317;48.880;-0.862;2023-07-20T12:03:56;2.60;;;1.30;;
72358;SDS011;60317;48.880;-0.862;2023-07-20T12:06:23;1.90;;;1.40;;
72358;SDS011;60317;48.880;-0.862;2023-07-20T12:08:54;2.67;;;1.40;;
72358;SDS011;60317;48.880;-0.862;2023-07-20T12:11:33;2.33;;;1.40;;
72358;SDS011;60317;48.880;-0.862;2023-07-20T12:14:00;1.58;;;1.13;;
72358;SDS011;60317;48.880;-0.862;2023-07-20T12:16:42;2.33;;;1.20;;
72358;SDS011;60317;48.880;-0.862;2023-07-20T12:19:10;2.65;;;1.42;;
72358;SDS011;60317;48.880;-0.862;2023-07-20T12:21:38;2.15;;;1.10;;
72358;SDS011;60317;48.880;-0.862;2023-07-20T12:24:06;2.20;;;1.23;;
72358;SDS011;60317;48.880;-0.862;2023-07-20T12:26:35;2.38;;;1.15;;
72358;SDS011;60317;48.880;-0.862;2023-07-20T12:29:01;1.77;;;1.05;;
72358;SDS011;60317;48.880;-0.862;2023-07-20T12:31:28;1.40;;;1.30;;
72358;SDS011;60317;48.880;-0.862;2023-07-20T12:33:56;2.38;;;1.20;;
72358;SDS011;60317;48.880;-0.862;2023-07-20T12:36:24;1.55;;;1.25;;
72358;SDS011;60317;48.880;-0.862;2023-07-20T12:38:51;4.03;;;1.40;;
72358;SDS011;60317;48.880;-0.862;2023-07-20T12:41:18;2.45;;;1.25;;
72358;SDS011;60317;48.880;-0.862;2023-07-20T12:43:45;2.35;;;1.20;;
72358;SDS011;60317;48.880;-0.862;2023-07-20T12:46:12;2.22;;;1.15;;
72358;SDS011;60317;48.880;-0.862;2023-07-20T12:48:40;1.52;;;1.27;;
72358;SDS011;60317;48.880;-0.862;2023-07-20T12:51:07;3.28;;;1.35;;
72358;SDS011;60317;48.880;-0.862;2023-07-20T12:53:34;2.63;;;1.50;;
72358;SDS011;60317;48.880;-0.862;2023-07-20T12:56:01;2.00;;;1.02;;
72358;SDS011;60317;48.880;-0.862;2023-07-20T12:58:49;1.85;;;1.10;;
72358;SDS011;60317;48.880;-0.862;2023-07-20T13:01:16;2.05;;;1.20;;
72358;SDS011;60317;48.880;-0.862;2023-07-20T13:03:42;3.30;;;1.30;;
72358;SDS011;60317;48.880;-0.862;2023-07-20T13:06:12;3.53;;;1.30;;
72358;SDS011;60317;48.880;-0.862;2023-07-20T13:08:41;1.60;;;1.15;;
72358;SDS011;60317;48.880;-0.862;2023-07-20T13:11:08;3.53;;;1.33;;
72358;SDS011;60317;48.880;-0.862;2023-07-20T13:13:34;2.22;;;1.20;;
72358;SDS011;60317;48.880;-0.862;2023-07-20T13:16:03;1.90;;;1.30;;
72358;SDS011;60317;48.880;-0.862;2023-07-20T13:18:30;1.23;;;1.13;;
72358;SDS011;60317;48.880;-0.862;2023-07-20T13:20:57;1.83;;;1.15;;
72358;SDS011;60317;48.880;-0.862;2023-07-20T13:23:23;3.33;;;1.20;;
72358;SDS011;60317;48.880;-0.862;2023-07-20T13:25:50;2.00;;;1.30;;
72358;SDS011;60317;48.880;-0.862;2023-07-20T13:28:16;4.10;;;1.08;;
72358;SDS011;60317;48.880;-0.862;2023-07-20T13:30:43;1.17;;;1.00;;
72358;SDS011;60317;48.880;-0.862;2023-07-20T13:33:11;1.88;;;1.10;;
72358;SDS011;60317;48.880;-0.862;2023-07-20T13:35:43;2.08;;;1.30;;
72358;SDS011;60317;48.880;-0.862;2023-07-20T13:38:12;3.42;;;1.08;;
72358;SDS011;60317;48.880;-0.862;2023-07-20T13:40:39;2.15;;;1.00;;
72358;SDS011;60317;48.880;-0.862;2023-07-20T13:43:05;2.72;;;1.30;;
72358;SDS011;60317;48.880;-0.862;2023-07-20T13:45:32;1.40;;;1.05;;
72358;SDS011;60317;48.880;-0.862;2023-07-20T13:47:58;3.65;;;1.20;;
72358;SDS011;60317;48.880;-0.862;2023-07-20T13:50:30;1.75;;;1.20;;
72358;SDS011;60317;48.880;-0.862;2023-07-20T13:53:08;1.75;;;1.30;;
72358;SDS011;60317;48.880;-0.862;2023-07-20T13:55:37;4.13;;;1.30;;
72358;SDS011;60317;48.880;-0.862;2023-07-20T13:58:07;2.25;;;1.20;;
72358;SDS011;60317;48.880;-0.862;2023-07-20T14:00:33;2.45;;;1.17;;
72358;SDS011;60317;48.880;-0.862;2023-07-20T14:03:00;1.88;;;1.20;;
72358;SDS011;60317;48.880;-0.862;2023-07-20T14:05:31;1.13;;;0.90;;
72358;SDS011;60317;48.880;-0.862;2023-07-20T14:08:00;3.30;;;1.20;;
72358;SDS011;60317;48.880;-0.862;2023-07-20T14:10:27;2.42;;;1.00;;
72358;SDS011;60317;48.880;-0.862;2023-07-20T14:12:53;1.85;;;0.98;;
72358;SDS011;60317;48.880;-0.862;2023-07-20T14:15:20;1.02;;;0.93;;
72358;SDS011;60317;48.880;-0.862;2023-07-20T14:17:46;1.52;;;1.30;;
72358;SDS011;60317;48.880;-0.862;2023-07-20T14:20:13;2.95;;;1.27;;
72358;SDS011;60317;48.880;-0.862;2023-07-20T14:22:44;2.38;;;1.27;;
72358;SDS011;60317;48.880;-0.862;2023-07-20T14:25:10;4.40;;;1.25;;
72358;SDS011;60317;48.880;-0.862;2023-07-20T14:27:37;2.33;;;1.23;;
72358;SDS011;60317;48.880;-0.862;2023-07-20T14:30:04;1.92;;;1.20;;
72358;SDS011;60317;48.880;-0.862;2023-07-20T14:32:31;2.83;;;1.10;;
72358;SDS011;60317;48.880;-0.862;2023-07-20T14:34:58;4.25;;;1.30;;
72358;SDS011;60317;48.880;-0.862;2023-07-20T14:37:25;1.63;;;1.20;;
72358;SDS011;60317;48.880;-0.862;2023-07-20T14:39:55;4.32;;;1.50;;
72358;SDS011;60317;48.880;-0.862;2023-07-20T14:42:22;1.10;;;1.00;;
72358;SDS011;60317;48.880;-0.862;2023-07-20T14:44:48;2.10;;;1.10;;
72358;SDS011;60317;48.880;-0.862;2023-07-20T14:47:15;2.72;;;1.25;;
72358;SDS011;60317;48.880;-0.862;2023-07-20T14:49:41;2.75;;;1.35;;
72358;SDS011;60317;48.880;-0.862;2023-07-20T14:52:08;2.45;;;1.20;;